Time;durP1;ratioP1;P1;durP2;ratioP2;P2;SDS_P1;SDS_P2;PMS_P1;PMS_P2;Temp;Humidity;BMP_temperature;BMP_pressure;BME280_temperature;BME280_humidity;BME280_pressure;Samples;Min_cycle;Max_cycle;Signal;HPM_P1;HPM_P2
2019/05/19 00:01:19;;;;;;;6.8;6.1;;;;;;;13.67;64.74414;949.1738;;;;
2019/05/19 00:03:44;;;;;;;7.1;6;;;;;;;13.77;64.35938;949.1503;;;;
2019/05/19 00:06:09;;;;;;;6.6;5.9;;;;;;;13.68;64.83984;949.1505;;;;
2019/05/19 00:08:34;;;;;;;5.9;5.4;;;;;;;13.61;65.16797;949.1584;;;;
2019/05/19 00:10:59;;;;;;;6.1;5.3;;;;;;;13.78;64.55859;949.1923;;;;
2019/05/19 00:13:25;;;;;;;7.6;5.6;;;;;;;13.73;64.92871;949.1263;;;;
2019/05/19 00:15:50;;;;;;;7.4;5.6;;;;;;;13.57;65.71484;949.1813;;;;
2019/05/19 00:18:15;;;;;;;6.8;5.5;;;;;;;13.49;66.19434;949.1813;;;;
2019/05/19 00:20:40;;;;;;;6.2;5.6;;;;;;;13.38;66.39063;949.2145;;;;
2019/05/19 00:23:05;;;;;;;6.4;5.6;;;;;;;13.4;66.27637;949.1199;;;;
2019/05/19 00:25:32;;;;;;;6.4;5.7;;;;;;;13.33;66.3125;949.0927;;;;
2019/05/19 00:27:57;;;;;;;6.2;5.6;;;;;;;13.51;65.61133;949.0944;;;;
2019/05/19 00:30:35;;;;;;;6.6;5.2;;;;;;;13.37;66.27051;949.1119;;;;
2019/05/19 00:32:52;;;;;;;6.4;5.8;;;;;;;13.38;66.25;949.0625;;;;
2019/05/19 00:35:17;;;;;;;6;5.4;;;;;;;13.53;65.62598;949.0961;;;;
2019/05/19 00:37:43;;;;;;;5.9;5.4;;;;;;;13.49;65.80859;949.0291;;;;
2019/05/19 00:40:08;;;;;;;6.6;5.7;;;;;;;13.47;65.71191;949.0273;;;;
2019/05/19 00:42:33;;;;;;;6.5;5.9;;;;;;;13.41;65.98535;949.0059;;;;
2019/05/19 00:45:00;;;;;;;7;5.6;;;;;;;13.57;65.45605;949.0733;;;;
2019/05/19 00:47:25;;;;;;;6.4;5.8;;;;;;;13.42;65.7041;949.0267;;;;
2019/05/19 00:49:52;;;;;;;6.8;5.9;;;;;;;13.46;65.53418;949.0027;;;;
2019/05/19 00:52:17;;;;;;;6.6;5.9;;;;;;;13.41;65.75977;949.0591;;;;
2019/05/19 00:54:42;;;;;;;6.4;5.8;;;;;;;13.42;66.00879;948.9747;;;;
2019/05/19 00:57:08;;;;;;;6.5;5.9;;;;;;;13.38;66.16797;948.9846;;;;
2019/05/19 00:59:33;;;;;;;7.1;6.4;;;;;;;13.2;66.97266;948.9942;;;;
2019/05/19 01:02:00;;;;;;;6.9;6.2;;;;;;;12.96;68.00293;949.0447;;;;
2019/05/19 01:04:26;;;;;;;7.4;6.7;;;;;;;12.96;67.85059;949.0708;;;;
2019/05/19 01:06:51;;;;;;;7.6;6.8;;;;;;;12.9;68.50879;949.106;;;;
2019/05/19 01:09:17;;;;;;;7.6;6.3;;;;;;;13.08;67.66895;949.0701;;;;
2019/05/19 01:11:42;;;;;;;8.6;6.7;;;;;;;12.91;68.66309;949.1554;;;;
2019/05/19 01:14:07;;;;;;;7.8;7;;;;;;;12.92;68.66602;949.1675;;;;
2019/05/19 01:16:32;;;;;;;7.3;6.6;;;;;;;12.81;68.87109;949.2096;;;;
2019/05/19 01:18:59;;;;;;;6.9;6.3;;;;;;;12.83;69.03809;949.1631;;;;
2019/05/19 01:21:24;;;;;;;7.7;6.9;;;;;;;12.77;69.44922;949.2205;;;;
2019/05/19 01:23:49;;;;;;;8.4;6.5;;;;;;;12.77;69.625;949.2294;;;;
2019/05/19 01:26:15;;;;;;;7.4;6.7;;;;;;;12.76;69.67188;949.2084;;;;
2019/05/19 01:28:40;;;;;;;8.1;6.8;;;;;;;12.81;69.13965;949.2278;;;;
2019/05/19 01:31:05;;;;;;;7.6;6.9;;;;;;;12.99;68.25293;949.3256;;;;
2019/05/19 01:33:30;;;;;;;9.6;7.5;;;;;;;12.87;68.68066;949.3522;;;;
2019/05/19 01:35:55;;;;;;;8.1;7.3;;;;;;;12.69;69.49512;949.3967;;;;
2019/05/19 01:38:20;;;;;;;9.4;8;;;;;;;12.58;69.95801;949.366;;;;
2019/05/19 01:40:45;;;;;;;9.2;7.6;;;;;;;12.4;70.53906;949.4016;;;;
2019/05/19 01:43:11;;;;;;;8.1;7;;;;;;;12.45;70.14746;949.3856;;;;
2019/05/19 01:45:36;;;;;;;8;7.3;;;;;;;12.54;69.84668;949.3107;;;;
2019/05/19 01:48:01;;;;;;;7.9;7.1;;;;;;;12.64;69.27734;949.3569;;;;
2019/05/19 01:50:26;;;;;;;8.2;7.4;;;;;;;12.62;69.37793;949.3731;;;;
2019/05/19 01:52:52;;;;;;;8.4;7.6;;;;;;;12.47;69.77734;949.3521;;;;
2019/05/19 01:55:17;;;;;;;8.2;7.3;;;;;;;12.33;70.73828;949.317;;;;
2019/05/19 01:57:42;;;;;;;8.5;7.6;;;;;;;12.29;70.73047;949.3317;;;;
2019/05/19 02:00:08;;;;;;;8.2;7.4;;;;;;;12.3;70.70898;949.4253;;;;
2019/05/19 02:02:33;;;;;;;9.3;7.3;;;;;;;12.29;70.98828;949.3876;;;;
2019/05/19 02:05:00;;;;;;;8.3;7.6;;;;;;;12.33;70.67969;949.4417;;;;
2019/05/19 02:07:25;;;;;;;10.4;7.8;;;;;;;12.34;70.61035;949.3755;;;;
2019/05/19 02:09:51;;;;;;;10.1;8.1;;;;;;;12.24;71.02832;949.3383;;;;
2019/05/19 02:12:16;;;;;;;9.2;8.3;;;;;;;12.01;71.81934;949.3425;;;;
2019/05/19 02:14:41;;;;;;;8.6;7.8;;;;;;;11.98;71.91992;949.3808;;;;
2019/05/19 02:17:07;;;;;;;9.3;8.3;;;;;;;11.92;72.50781;949.377;;;;
2019/05/19 02:19:32;;;;;;;9.6;8.7;;;;;;;12.16;71.75098;949.3898;;;;
2019/05/19 02:21:57;;;;;;;9.5;8.3;;;;;;;12.1;71.89258;949.4895;;;;
2019/05/19 02:24:25;;;;;;;9.4;8.1;;;;;;;12.07;71.95801;949.4853;;;;
2019/05/19 02:26:50;;;;;;;8.8;7.9;;;;;;;12.12;71.7334;949.4903;;;;
2019/05/19 02:29:15;;;;;;;8.9;8.1;;;;;;;12.06;72.2959;949.4693;;;;
2019/05/19 02:31:40;;;;;;;8.2;7.5;;;;;;;12.07;71.64258;949.4166;;;;
2019/05/19 02:34:06;;;;;;;8.7;7.9;;;;;;;11.8;72.88477;949.4338;;;;
2019/05/19 02:36:31;;;;;;;9.4;8.4;;;;;;;11.91;72.62207;949.4439;;;;
2019/05/19 02:38:56;;;;;;;8.8;8;;;;;;;11.82;73.18066;949.4572;;;;
2019/05/19 02:41:22;;;;;;;9.9;8.3;;;;;;;11.74;73.30762;949.4076;;;;
2019/05/19 02:43:47;;;;;;;9.6;8.7;;;;;;;11.84;72.65723;949.2815;;;;
2019/05/19 02:46:12;;;;;;;8.9;8.1;;;;;;;11.7;73.23145;949.2886;;;;
2019/05/19 02:48:37;;;;;;;9.3;8.4;;;;;;;11.86;73.06934;949.3301;;;;
2019/05/19 02:51:02;;;;;;;9.4;8.6;;;;;;;11.74;73.20215;949.3986;;;;
2019/05/19 02:53:27;;;;;;;9.8;8.9;;;;;;;11.6;74.19531;949.3809;;;;
2019/05/19 02:55:52;;;;;;;9.3;8.5;;;;;;;11.57;74.45898;949.4281;;;;
2019/05/19 02:58:23;;;;;;;9.2;8.3;;;;;;;11.68;74;949.4942;;;;
2019/05/19 03:00:46;;;;;;;9.9;8.9;;;;;;;11.78;73.32617;949.4707;;;;
2019/05/19 03:03:11;;;;;;;10;9.1;;;;;;;11.8;72.58105;949.5024;;;;
2019/05/19 03:05:36;;;;;;;10.7;9.6;;;;;;;11.74;73.21387;949.5034;;;;
2019/05/19 03:08:03;;;;;;;10.5;9.6;;;;;;;11.61;73.6123;949.4705;;;;
2019/05/19 03:10:28;;;;;;;10.7;9.6;;;;;;;11.59;73.66699;949.5376;;;;
2019/05/19 03:12:54;;;;;;;11.3;9.4;;;;;;;11.58;73.58398;949.5089;;;;
2019/05/19 03:15:19;;;;;;;9.9;9.1;;;;;;;11.6;73.55371;949.5662;;;;
2019/05/19 03:17:44;;;;;;;10.2;9.3;;;;;;;11.29;74.64551;949.5848;;;;
2019/05/19 03:20:09;;;;;;;10.1;9.2;;;;;;;11.28;75.27344;949.5353;;;;
2019/05/19 03:22:34;;;;;;;10.2;9.3;;;;;;;11.4;74.69922;949.5862;;;;
2019/05/19 03:25:00;;;;;;;10.9;9.8;;;;;;;11.54;74.01074;949.6013;;;;
2019/05/19 03:27:25;;;;;;;10.5;9.5;;;;;;;11.32;75.26953;949.6412;;;;
2019/05/19 03:29:54;;;;;;;9.8;8.9;;;;;;;11.23;75.49805;949.6375;;;;
2019/05/19 03:32:29;;;;;;;10.6;9.7;;;;;;;11.35;75.18066;949.551;;;;
2019/05/19 03:34:40;;;;;;;10.2;9.2;;;;;;;11.36;75.07715;949.593;;;;
2019/05/19 03:37:05;;;;;;;10.7;9.7;;;;;;;11.48;74.41895;949.5544;;;;
2019/05/19 03:39:30;;;;;;;10.8;9.9;;;;;;;11.47;74.41797;949.5645;;;;
2019/05/19 03:41:56;;;;;;;10.7;9.8;;;;;;;11.45;74.95215;949.5497;;;;
2019/05/19 03:44:21;;;;;;;11.2;9.8;;;;;;;11.4;75.0498;949.5175;;;;
2019/05/19 03:46:46;;;;;;;10.1;9.2;;;;;;;11.4;74.90918;949.4656;;;;
2019/05/19 03:49:11;;;;;;;10.2;9.2;;;;;;;11.44;74.93848;949.4133;;;;
2019/05/19 03:51:36;;;;;;;10.4;9.5;;;;;;;11.44;75.10254;949.4393;;;;
2019/05/19 03:54:01;;;;;;;10.1;9.2;;;;;;;11.56;74.67969;949.4811;;;;
2019/05/19 03:56:26;;;;;;;10.1;9.1;;;;;;;11.55;74.31445;949.4266;;;;
2019/05/19 03:58:51;;;;;;;10.7;9.8;;;;;;;11.49;74.46777;949.3886;;;;
2019/05/19 04:02:26;;;;;;;13.9;9.5;;;;;;;11.47;75.04883;949.4688;;;;
2019/05/19 04:04:51;;;;;;;11.2;10.3;;;;;;;11.64;74.38965;949.4;;;;
2019/05/19 04:07:17;;;;;;;10.9;10;;;;;;;11.51;75.10449;949.4579;;;;
2019/05/19 04:09:42;;;;;;;10.6;9.5;;;;;;;11.53;74.81543;949.4377;;;;
2019/05/19 04:12:10;;;;;;;10.9;9.8;;;;;;;11.77;73.84961;949.455;;;;
2019/05/19 04:14:35;;;;;;;11.4;10.3;;;;;;;11.81;73.92676;949.4533;;;;
2019/05/19 04:17:00;;;;;;;11.3;10.2;;;;;;;11.76;74.19922;949.4182;;;;
2019/05/19 04:19:25;;;;;;;11.6;10.5;;;;;;;11.82;73.97559;949.4183;;;;
2019/05/19 04:21:50;;;;;;;10.9;9.9;;;;;;;11.7;74.7373;949.3794;;;;
2019/05/19 04:24:15;;;;;;;10.9;9.9;;;;;;;11.54;75.02734;949.3809;;;;
2019/05/19 04:26:40;;;;;;;10.3;9.4;;;;;;;11.58;75.13867;949.4312;;;;
2019/05/19 04:29:06;;;;;;;10.2;9.2;;;;;;;11.73;74.80176;949.4697;;;;
2019/05/19 04:31:31;;;;;;;11.1;10.1;;;;;;;11.85;74.34277;949.5258;;;;
2019/05/19 04:33:56;;;;;;;10.5;9.5;;;;;;;11.78;74.77441;949.5316;;;;
2019/05/19 04:36:21;;;;;;;10.1;9.1;;;;;;;11.74;74.96777;949.5153;;;;
2019/05/19 04:38:46;;;;;;;11.2;10.1;;;;;;;11.73;75.49219;949.5605;;;;
2019/05/19 04:41:11;;;;;;;10.9;10;;;;;;;11.95;74.17383;949.5412;;;;
2019/05/19 04:43:36;;;;;;;11.4;10.4;;;;;;;12.04;74.1416;949.6105;;;;
2019/05/19 04:46:01;;;;;;;11.5;10.4;;;;;;;11.95;74.59473;949.7228;;;;
2019/05/19 04:48:27;;;;;;;10.9;9.9;;;;;;;11.9;75.36914;949.6916;;;;
2019/05/19 04:50:52;;;;;;;12.3;11.2;;;;;;;12;74.75391;949.5862;;;;
2019/05/19 04:53:17;;;;;;;12.3;11.2;;;;;;;11.91;75.42969;949.5736;;;;
2019/05/19 04:55:42;;;;;;;12.8;11.5;;;;;;;12.09;74.81836;949.5985;;;;
2019/05/19 04:58:08;;;;;;;12.9;11.8;;;;;;;12.07;74.8252;949.5463;;;;
2019/05/19 05:00:33;;;;;;;13.2;12.1;;;;;;;12.12;75.05664;949.5123;;;;
2019/05/19 05:02:59;;;;;;;12.8;11.6;;;;;;;12.34;74.32031;949.4975;;;;
2019/05/19 05:05:24;;;;;;;14.4;13;;;;;;;12.42;73.83203;949.5497;;;;
2019/05/19 05:07:50;;;;;;;14;12.8;;;;;;;12.59;73.61426;949.5637;;;;
2019/05/19 05:10:15;;;;;;;14.8;13.4;;;;;;;12.6;73.16113;949.5834;;;;
2019/05/19 05:12:40;;;;;;;14.9;13.5;;;;;;;12.58;73.46094;949.6036;;;;
2019/05/19 05:15:06;;;;;;;15.9;14.4;;;;;;;12.64;73.12988;949.6736;;;;
2019/05/19 05:17:31;;;;;;;15.9;14.5;;;;;;;12.57;73.66895;949.658;;;;
2019/05/19 05:19:57;;;;;;;15.8;14.4;;;;;;;12.59;73.62598;949.6117;;;;
2019/05/19 05:22:22;;;;;;;16.4;14.9;;;;;;;12.59;73.48535;949.5936;;;;
2019/05/19 05:24:51;;;;;;;15.5;14.2;;;;;;;12.71;73.26074;949.6063;;;;
2019/05/19 05:27:17;;;;;;;16.4;15;;;;;;;12.86;72.72363;949.634;;;;
2019/05/19 05:29:42;;;;;;;16.1;14.5;;;;;;;13.01;71.94922;949.6484;;;;
2019/05/19 05:32:07;;;;;;;16.1;14.5;;;;;;;13;72.37012;949.6365;;;;
2019/05/19 05:34:32;;;;;;;16.1;14.6;;;;;;;13.11;71.58008;949.6451;;;;
2019/05/19 05:36:57;;;;;;;15.2;13.7;;;;;;;13.13;72.02832;949.6206;;;;
2019/05/19 05:39:22;;;;;;;15;13.7;;;;;;;13.33;71.40723;949.6638;;;;
2019/05/19 05:42:02;;;;;;;16.8;15.3;;;;;;;13.24;70.72168;949.6125;;;;
2019/05/19 05:44:28;;;;;;;16.2;14.7;;;;;;;13.19;71.25293;949.7154;;;;
2019/05/19 05:46:54;;;;;;;17.7;16;;;;;;;13.16;71.48145;949.7681;;;;
2019/05/19 05:49:19;;;;;;;16.3;14.7;;;;;;;13.23;71.22363;949.6836;;;;
2019/05/19 05:51:44;;;;;;;16.8;15.3;;;;;;;13.18;71.41602;949.6477;;;;
2019/05/19 05:54:10;;;;;;;16.2;14.7;;;;;;;13.33;70.99414;949.7725;;;;
2019/05/19 05:56:36;;;;;;;16.1;14.7;;;;;;;13.24;71.05078;949.7555;;;;
2019/05/19 05:59:05;;;;;;;15.6;14.2;;;;;;;13.29;71.16309;949.7134;;;;
2019/05/19 06:01:37;;;;;;;15.5;14.1;;;;;;;13.48;70.7832;949.7673;;;;
2019/05/19 06:04:06;;;;;;;16;14.6;;;;;;;13.68;69.94824;949.6928;;;;
2019/05/19 06:06:31;;;;;;;16.2;14.6;;;;;;;13.74;69.39453;949.7095;;;;
2019/05/19 06:08:57;;;;;;;14.2;12.9;;;;;;;14.08;68.90723;949.6312;;;;
2019/05/19 06:11:22;;;;;;;14.7;13.3;;;;;;;14.42;67.40723;949.7388;;;;
2019/05/19 06:13:48;;;;;;;14.3;12.8;;;;;;;14.72;66.01758;949.7794;;;;
2019/05/19 06:16:13;;;;;;;13.1;11.8;;;;;;;14.5;66.25488;949.7389;;;;
2019/05/19 06:18:38;;;;;;;12.1;11.1;;;;;;;14.41;66.92383;949.7619;;;;
2019/05/19 06:21:03;;;;;;;11.8;10.8;;;;;;;14.63;66.28711;949.7143;;;;
2019/05/19 06:23:29;;;;;;;11.5;10.5;;;;;;;14.98;65.50293;949.7159;;;;
2019/05/19 06:25:54;;;;;;;11.3;10.3;;;;;;;14.78;64.93262;949.7644;;;;
2019/05/19 06:28:21;;;;;;;11.2;10.3;;;;;;;14.96;65.0293;949.7717;;;;
2019/05/19 06:30:46;;;;;;;10.8;9.7;;;;;;;14.87;64.80371;949.7459;;;;
2019/05/19 06:33:12;;;;;;;11.3;10.2;;;;;;;14.95;65.16895;949.803;;;;
2019/05/19 06:35:38;;;;;;;10.8;9.8;;;;;;;15.01;65.10742;949.7803;;;;
2019/05/19 06:38:04;;;;;;;10.1;9.1;;;;;;;15;64.38672;949.7734;;;;
2019/05/19 06:40:29;;;;;;;10.8;9.8;;;;;;;14.96;64.89941;949.7847;;;;
2019/05/19 06:42:54;;;;;;;10.5;9.5;;;;;;;15.14;63.39355;949.7516;;;;
2019/05/19 06:45:22;;;;;;;10;9.1;;;;;;;15.05;63.85254;949.7611;;;;
2019/05/19 06:47:47;;;;;;;11.4;10.4;;;;;;;15.24;63.48047;949.7566;;;;
2019/05/19 06:50:13;;;;;;;10.6;9.7;;;;;;;14.97;64.67676;949.7561;;;;
2019/05/19 06:52:38;;;;;;;10.6;9.7;;;;;;;15.21;63.36914;949.7145;;;;
2019/05/19 06:55:03;;;;;;;9.4;8.5;;;;;;;15.29;62.97949;949.6917;;;;
2019/05/19 06:57:28;;;;;;;9.9;9;;;;;;;15.35;62.70605;949.6612;;;;
2019/05/19 06:59:54;;;;;;;9.3;8.5;;;;;;;15.48;61.33301;949.674;;;;
2019/05/19 07:02:20;;;;;;;9.6;8.7;;;;;;;15.59;60.77148;949.6476;;;;
2019/05/19 07:04:47;;;;;;;9.9;9;;;;;;;15.46;62.5332;949.5735;;;;
2019/05/19 07:07:12;;;;;;;13.4;12;;;;;;;15.26;61.92676;949.6758;;;;
2019/05/19 07:09:38;;;;;;;12.4;11.2;;;;;;;15.34;62.59863;949.593;;;;
2019/05/19 07:12:03;;;;;;;11;9.9;;;;;;;15.49;62.19434;949.5605;;;;
2019/05/19 07:14:31;;;;;;;10.5;9.5;;;;;;;15.55;62.64063;949.5064;;;;
2019/05/19 07:16:56;;;;;;;9.6;8.6;;;;;;;15.46;61.54297;949.5253;;;;
2019/05/19 07:19:24;;;;;;;9.8;8.9;;;;;;;15.37;62.68555;949.4917;;;;
2019/05/19 07:21:49;;;;;;;11.1;9.7;;;;;;;15.63;61.66113;949.49;;;;
2019/05/19 07:24:15;;;;;;;9.9;9;;;;;;;15.25;61.98535;949.6197;;;;
2019/05/19 07:26:40;;;;;;;10.4;9.3;;;;;;;15.4;62.39453;949.6041;;;;
2019/05/19 07:29:05;;;;;;;10.6;9.6;;;;;;;15.57;62.1709;949.5076;;;;
2019/05/19 07:31:31;;;;;;;10.5;9.5;;;;;;;15.57;61.66406;949.5338;;;;
2019/05/19 07:33:56;;;;;;;10.9;9.8;;;;;;;15.83;61.68848;949.4617;;;;
2019/05/19 07:36:23;;;;;;;10.5;9.5;;;;;;;15.56;61.83984;949.4398;;;;
2019/05/19 07:38:48;;;;;;;10.2;9.2;;;;;;;15.73;61.65137;949.4913;;;;
2019/05/19 07:41:13;;;;;;;11;9.9;;;;;;;15.95;60.61816;949.5125;;;;
2019/05/19 07:43:40;;;;;;;11.4;10.3;;;;;;;15.78;61.14941;949.4484;;;;
2019/05/19 07:46:05;;;;;;;11.2;10.1;;;;;;;15.86;61.20898;949.4268;;;;
2019/05/19 07:48:32;;;;;;;9.9;8.9;;;;;;;16.04;60.73828;949.4151;;;;
2019/05/19 07:50:57;;;;;;;11.1;9.9;;;;;;;15.98;59.75098;949.4409;;;;
2019/05/19 07:53:36;;;;;;;10.7;9.7;;;;;;;15.91;60.45996;949.3318;;;;
2019/05/19 07:56:02;;;;;;;11.6;10.5;;;;;;;15.92;60.46289;949.3203;;;;
2019/05/19 07:58:27;;;;;;;11.3;10.2;;;;;;;16.11;59.82715;949.3594;;;;
2019/05/19 08:00:52;;;;;;;11.2;9.4;;;;;;;16.28;60.00293;949.3445;;;;
2019/05/19 08:03:19;;;;;;;9.9;9;;;;;;;16.35;60.13281;949.3318;;;;
2019/05/19 08:05:44;;;;;;;10.6;9.6;;;;;;;16.3;59.91211;949.3017;;;;
2019/05/19 08:08:11;;;;;;;10.2;9.3;;;;;;;16.03;60.28809;949.3198;;;;
2019/05/19 08:10:36;;;;;;;10.4;9.5;;;;;;;16.31;60.13867;949.239;;;;
2019/05/19 08:13:02;;;;;;;11.1;10;;;;;;;16.35;60.79297;949.3201;;;;
2019/05/19 08:15:27;;;;;;;9.8;8.9;;;;;;;16.05;60.7041;949.3394;;;;
2019/05/19 08:17:52;;;;;;;10.1;9.1;;;;;;;16.12;60.77441;949.2875;;;;
2019/05/19 08:20:18;;;;;;;10.7;9.5;;;;;;;16.17;60.35352;949.276;;;;
2019/05/19 08:22:44;;;;;;;9.8;8.9;;;;;;;16.32;60.08008;949.3251;;;;
2019/05/19 08:25:11;;;;;;;11.1;10;;;;;;;16.58;59.80957;949.3423;;;;
2019/05/19 08:27:36;;;;;;;11.6;10.6;;;;;;;16.52;60.65234;949.3264;;;;
2019/05/19 08:30:04;;;;;;;10.9;9.9;;;;;;;16.49;60.42383;949.3261;;;;
2019/05/19 08:32:29;;;;;;;10.5;9.5;;;;;;;16.82;59.55762;949.2715;;;;
2019/05/19 08:34:56;;;;;;;11.6;10.4;;;;;;;17.04;59.43457;949.3481;;;;
2019/05/19 08:37:21;;;;;;;11;10;;;;;;;17;58.82422;949.2944;;;;
2019/05/19 08:39:47;;;;;;;11.8;10.7;;;;;;;17.2;58.34277;949.3301;;;;
2019/05/19 08:42:12;;;;;;;11.8;10.7;;;;;;;17.11;59.63184;949.3458;;;;
2019/05/19 08:44:37;;;;;;;11.9;10.1;;;;;;;17.12;59.52734;949.296;;;;
2019/05/19 08:47:03;;;;;;;11.6;10.4;;;;;;;17.23;58.68945;949.3041;;;;
2019/05/19 08:49:28;;;;;;;11.3;10.1;;;;;;;17.4;58.61719;949.3226;;;;
2019/05/19 08:51:54;;;;;;;10.9;9.9;;;;;;;17.48;57.66895;949.3186;;;;
2019/05/19 08:54:19;;;;;;;11.4;10.3;;;;;;;17.42;58.83398;949.2794;;;;
2019/05/19 08:56:47;;;;;;;11.4;10.3;;;;;;;17.66;57.59668;949.3265;;;;
2019/05/19 08:59:10;;;;;;;10.3;9.3;;;;;;;17.62;57.27246;949.2375;;;;
2019/05/19 09:01:35;;;;;;;10.5;9;;;;;;;17.62;57.71094;949.2336;;;;
2019/05/19 09:04:00;;;;;;;10.8;8.9;;;;;;;17.81;56.92871;949.2274;;;;
2019/05/19 09:06:25;;;;;;;12.3;11.2;;;;;;;18.03;56.0918;949.2637;;;;
2019/05/19 09:08:50;;;;;;;11.2;10.1;;;;;;;18.03;55.68945;949.2231;;;;
2019/05/19 09:11:15;;;;;;;10.9;9.8;;;;;;;17.91;55.78027;949.1487;;;;
2019/05/19 09:13:42;;;;;;;10;9;;;;;;;17.78;56.43945;949.1922;;;;
2019/05/19 09:16:07;;;;;;;11;9.8;;;;;;;18;56.65723;949.2417;;;;
2019/05/19 09:18:33;;;;;;;10.7;9.6;;;;;;;18.15;56.53418;949.1944;;;;
2019/05/19 09:20:58;;;;;;;11.9;10.3;;;;;;;18.35;54.75586;949.1912;;;;
2019/05/19 09:23:23;;;;;;;10.3;9.3;;;;;;;18.25;54.74316;949.2123;;;;
2019/05/19 09:25:48;;;;;;;10.4;9.3;;;;;;;18.28;54.97363;949.2148;;;;
2019/05/19 09:28:13;;;;;;;11;10;;;;;;;18.42;53.69531;949.2356;;;;
2019/05/19 09:30:38;;;;;;;9.8;8.8;;;;;;;18.49;54.5127;949.1961;;;;
2019/05/19 09:33:03;;;;;;;9.5;8.6;;;;;;;18.49;53.70508;949.2747;;;;
2019/05/19 09:35:28;;;;;;;10.7;9.6;;;;;;;18.57;53.75;949.2273;;;;
2019/05/19 09:37:54;;;;;;;11;9.9;;;;;;;18.64;52.73828;949.1916;;;;
2019/05/19 09:40:19;;;;;;;10.8;9.8;;;;;;;18.54;52.61816;949.2181;;;;
2019/05/19 09:42:44;;;;;;;11.1;9.4;;;;;;;18.6;53.19531;949.1381;;;;
2019/05/19 09:45:11;;;;;;;10.5;9.5;;;;;;;18.4;52.71973;949.1386;;;;
2019/05/19 09:47:36;;;;;;;10.8;9.7;;;;;;;18.6;52.20996;949.1288;;;;
2019/05/19 09:50:02;;;;;;;9.7;8.6;;;;;;;18.86;52.19336;949.0625;;;;
2019/05/19 09:52:27;;;;;;;9.1;8.2;;;;;;;18.7;52.67285;949.0457;;;;
2019/05/19 09:54:53;;;;;;;8.7;7.9;;;;;;;18.67;51.33984;949.0037;;;;
2019/05/19 09:57:21;;;;;;;9.8;8.8;;;;;;;18.99;51.78027;949.0355;;;;
2019/05/19 09:59:47;;;;;;;10.3;9.3;;;;;;;18.7;52.48242;948.9946;;;;
2019/05/19 10:02:13;;;;;;;11.3;9.5;;;;;;;18.47;51.83789;948.9772;;;;
2019/05/19 10:04:38;;;;;;;9.1;8.3;;;;;;;18.32;53.32813;949.0039;;;;
2019/05/19 10:07:04;;;;;;;9.3;8.3;;;;;;;18.38;53.26367;948.9487;;;;
2019/05/19 10:09:29;;;;;;;10.1;9;;;;;;;18.52;51.96289;948.9024;;;;
2019/05/19 10:11:54;;;;;;;9.6;8.7;;;;;;;18.51;51.9502;948.8826;;;;
2019/05/19 10:14:20;;;;;;;9.6;8.7;;;;;;;18.53;52.08398;948.8918;;;;
2019/05/19 10:16:45;;;;;;;9.7;8.8;;;;;;;18.88;51.6123;948.8669;;;;
2019/05/19 10:19:11;;;;;;;10.4;9.3;;;;;;;19.09;51.32813;948.8159;;;;
2019/05/19 10:21:36;;;;;;;10.2;9.3;;;;;;;19.09;51.03125;948.8552;;;;
2019/05/19 10:24:04;;;;;;;9.6;8.6;;;;;;;19.19;50.85352;948.8019;;;;
2019/05/19 10:26:29;;;;;;;9.1;8.2;;;;;;;19.13;50.2041;948.7473;;;;
2019/05/19 10:28:54;;;;;;;10.3;8.8;;;;;;;19.09;50.53125;948.8027;;;;
2019/05/19 10:31:19;;;;;;;8.7;7.9;;;;;;;19.32;49.98828;948.7618;;;;
2019/05/19 10:33:44;;;;;;;9.2;8.3;;;;;;;19.5;49.50684;948.704;;;;
2019/05/19 10:36:09;;;;;;;9.5;8.5;;;;;;;19.59;49.93457;948.7177;;;;
2019/05/19 10:38:37;;;;;;;8.8;8;;;;;;;19.42;47.55859;948.6877;;;;
2019/05/19 10:41:02;;;;;;;9;7.7;;;;;;;19.18;47.16504;948.76;;;;
2019/05/19 10:43:27;;;;;;;10.5;9.4;;;;;;;19.33;47.72852;948.6894;;;;
2019/05/19 10:45:59;;;;;;;10.4;9.2;;;;;;;19.4;48.00977;948.6509;;;;
2019/05/19 10:48:18;;;;;;;8.2;7.4;;;;;;;19.56;48.49023;948.6496;;;;
2019/05/19 10:50:43;;;;;;;9.4;7.9;;;;;;;19.89;46.25195;948.6339;;;;
2019/05/19 10:53:08;;;;;;;9.5;8.6;;;;;;;19.57;46.40918;948.5853;;;;
2019/05/19 10:55:33;;;;;;;8.4;7.6;;;;;;;19.66;46.2041;948.6005;;;;
2019/05/19 10:57:59;;;;;;;8.5;7.6;;;;;;;19.64;45.6543;948.6138;;;;
2019/05/19 11:00:24;;;;;;;8.1;7.1;;;;;;;19.97;45.53418;948.5305;;;;
2019/05/19 11:02:49;;;;;;;9.4;7.2;;;;;;;20.38;44.94434;948.5275;;;;
2019/05/19 11:05:15;;;;;;;8;7.2;;;;;;;20.75;44.87402;948.502;;;;
2019/05/19 11:07:40;;;;;;;8.1;7.1;;;;;;;20.66;44.9248;948.519;;;;
2019/05/19 11:10:05;;;;;;;8.3;7.2;;;;;;;20.53;44.02734;948.4957;;;;
2019/05/19 11:12:31;;;;;;;8.5;7.2;;;;;;;20.48;43.92871;948.4684;;;;
2019/05/19 11:14:56;;;;;;;8.2;6.9;;;;;;;20.59;43.23535;948.4792;;;;
2019/05/19 11:17:21;;;;;;;7.2;6.5;;;;;;;20.7;42.72168;948.4672;;;;
2019/05/19 11:19:46;;;;;;;9;6.7;;;;;;;20.92;42.6582;948.5011;;;;
2019/05/19 11:22:11;;;;;;;8.7;7;;;;;;;21.18;42.20605;948.4395;;;;
2019/05/19 11:24:37;;;;;;;8.1;6.5;;;;;;;21.76;41.84277;948.4726;;;;
2019/05/19 11:27:02;;;;;;;7.5;6.8;;;;;;;21.91;41.41504;948.4381;;;;
2019/05/19 11:29:28;;;;;;;6.3;5.7;;;;;;;21.95;40.95117;948.4666;;;;
2019/05/19 11:31:53;;;;;;;8.4;6.5;;;;;;;22.39;41.12402;948.382;;;;
2019/05/19 11:34:18;;;;;;;7.8;7.1;;;;;;;22.68;38.47754;948.3314;;;;
2019/05/19 11:36:43;;;;;;;7.1;6.1;;;;;;;22.33;38.83008;948.3199;;;;
2019/05/19 11:39:08;;;;;;;8.1;5.7;;;;;;;22.52;37.81641;948.2873;;;;
2019/05/19 11:41:33;;;;;;;7.9;6.1;;;;;;;22.65;40.43945;948.2899;;;;
2019/05/19 11:43:58;;;;;;;7.8;5.7;;;;;;;21.82;39.55078;948.2015;;;;
2019/05/19 11:46:23;;;;;;;8.2;5.6;;;;;;;22.05;38.45801;948.1708;;;;
2019/05/19 11:48:49;;;;;;;8.3;6.2;;;;;;;22.33;38.06348;948.1923;;;;
2019/05/19 11:51:15;;;;;;;6.1;5.5;;;;;;;22.49;38.43652;948.1442;;;;
2019/05/19 11:53:40;;;;;;;6.9;5.9;;;;;;;22.45;37.22266;948.1213;;;;
2019/05/19 11:56:05;;;;;;;7.1;5.7;;;;;;;22.75;38.68652;948.1202;;;;
2019/05/19 11:58:30;;;;;;;9.3;5.6;;;;;;;22.48;36.68652;948.0756;;;;
2019/05/19 12:00:56;;;;;;;5.6;5.1;;;;;;;22.5;35.16602;948.0767;;;;
2019/05/19 12:03:21;;;;;;;5.4;4.9;;;;;;;22.47;36.61328;948.0957;;;;
2019/05/19 12:05:46;;;;;;;6.9;5.4;;;;;;;22.38;36.03125;948.029;;;;
2019/05/19 12:08:11;;;;;;;7.3;5.5;;;;;;;22.45;37.62988;948.1174;;;;
2019/05/19 12:10:37;;;;;;;5.2;4.7;;;;;;;23.16;36.70605;948.0981;;;;
2019/05/19 12:13:02;;;;;;;7.7;4.7;;;;;;;23.32;33.7793;948.0704;;;;
2019/05/19 12:15:27;;;;;;;8.7;5.5;;;;;;;23.7;33.39941;947.9554;;;;
2019/05/19 12:17:56;;;;;;;7.8;4.8;;;;;;;23.38;33.13477;947.9714;;;;
2019/05/19 12:20:19;;;;;;;6.5;5.2;;;;;;;23.31;34.61816;948.0681;;;;
2019/05/19 12:22:46;;;;;;;8.5;5.2;;;;;;;22.93;35.64355;948.1125;;;;
2019/05/19 12:25:11;;;;;;;7.1;5.3;;;;;;;23.05;34.65723;948.0717;;;;
2019/05/19 12:27:36;;;;;;;6.8;5.9;;;;;;;23.29;34.18457;948.1292;;;;
2019/05/19 12:30:02;;;;;;;7.2;5.3;;;;;;;23.61;35.3623;947.9828;;;;
2019/05/19 12:32:27;;;;;;;6.3;5;;;;;;;23.35;34.87402;947.9285;;;;
2019/05/19 12:34:53;;;;;;;7.1;4.9;;;;;;;23.86;35.19043;947.9156;;;;
2019/05/19 12:37:18;;;;;;;8.7;6.2;;;;;;;23.61;34.8457;947.9073;;;;
2019/05/19 12:39:44;;;;;;;8.2;5.6;;;;;;;23.73;34.48242;947.8981;;;;
2019/05/19 12:42:09;;;;;;;9.7;5.6;;;;;;;24.21;33.61816;947.8416;;;;
2019/05/19 12:44:34;;;;;;;5.8;4.9;;;;;;;23.76;34.76172;947.8959;;;;
2019/05/19 12:47:00;;;;;;;7;5.2;;;;;;;23.97;35.36719;947.8756;;;;
2019/05/19 12:49:35;;;;;;;5.4;4.8;;;;;;;23.59;34.80859;947.793;;;;
2019/05/19 12:52:00;;;;;;;6.2;5.2;;;;;;;22.9;36.01367;947.8412;;;;
2019/05/19 12:54:25;;;;;;;6.3;4.8;;;;;;;22.49;37.20313;947.8369;;;;
2019/05/19 12:56:50;;;;;;;5.7;4.9;;;;;;;23.03;36.36035;947.8633;;;;
2019/05/19 12:59:17;;;;;;;7.1;6.1;;;;;;;23.67;34.69434;947.8083;;;;
2019/05/19 13:01:42;;;;;;;7.9;5.2;;;;;;;25.03;33.29395;947.6855;;;;
2019/05/19 13:04:09;;;;;;;7;5.4;;;;;;;25.33;31.78613;947.6097;;;;
2019/05/19 13:06:34;;;;;;;5.8;4.2;;;;;;;25.6;31.41895;947.6113;;;;
2019/05/19 13:09:01;;;;;;;6.1;4.7;;;;;;;25.18;32.59375;947.645;;;;
2019/05/19 13:11:26;;;;;;;7.2;5.4;;;;;;;24.56;33.77637;947.5552;;;;
2019/05/19 13:13:51;;;;;;;7.3;4.7;;;;;;;24.17;33.86719;947.6019;;;;
2019/05/19 13:16:17;;;;;;;5.8;4.5;;;;;;;24.21;33.48535;947.6167;;;;
2019/05/19 13:18:42;;;;;;;6.1;4.7;;;;;;;23.87;34.50586;947.5784;;;;
2019/05/19 13:21:07;;;;;;;10.7;5.2;;;;;;;23.58;34.4834;947.6492;;;;
2019/05/19 13:23:34;;;;;;;6.7;4.7;;;;;;;23.11;34.14746;947.5578;;;;
2019/05/19 13:26:02;;;;;;;6.7;4.1;;;;;;;22.97;34.87988;947.5851;;;;
2019/05/19 13:28:37;;;;;;;4.2;3.7;;;;;;;22.92;34.49219;947.5636;;;;
2019/05/19 13:31:03;;;;;;;7.9;6.1;;;;;;;23.39;33.78418;947.4812;;;;
2019/05/19 13:33:28;;;;;;;5.3;3.9;;;;;;;23.09;35.09277;947.4119;;;;
2019/05/19 13:35:53;;;;;;;4.2;3.7;;;;;;;23.86;33.50781;947.3738;;;;
2019/05/19 13:38:25;;;;;;;4.7;3.3;;;;;;;25.29;34.14551;947.3674;;;;
2019/05/19 13:40:50;;;;;;;4.9;3.3;;;;;;;25.67;29.91406;947.3015;;;;
2019/05/19 13:43:15;;;;;;;4.2;3.7;;;;;;;25.95;29.7041;947.2164;;;;
2019/05/19 13:45:40;;;;;;;5.4;3.5;;;;;;;26.97;30.06152;947.2101;;;;
2019/05/19 13:48:09;;;;;;;4.1;3.4;;;;;;;27.24;29.7168;947.1475;;;;
2019/05/19 13:50:34;;;;;;;3.9;3.4;;;;;;;26.6;31.57324;947.2047;;;;
2019/05/19 13:52:59;;;;;;;8.8;7.6;;;;;;;25.77;30.39258;947.2317;;;;
2019/05/19 13:55:24;;;;;;;4.8;3;;;;;;;25.15;30.44629;947.1799;;;;
2019/05/19 13:57:57;;;;;;;3.4;2.8;;;;;;;24.9;31.42969;947.19;;;;
2019/05/19 14:00:23;;;;;;;4.2;2.3;;;;;;;24.42;31.69629;947.1861;;;;
2019/05/19 14:02:48;;;;;;;5.7;2.5;;;;;;;23.83;33.93848;947.2425;;;;
2019/05/19 14:05:13;;;;;;;5.3;2.5;;;;;;;23.53;34.29883;947.2239;;;;
2019/05/19 14:07:40;;;;;;;8;2.7;;;;;;;23.51;32.28027;947.1701;;;;